createdAt,value
2018-09-06T00:00:22.808Z,1007.18
2018-09-06T00:01:22.784Z,1007.21
2018-09-06T00:02:22.716Z,1007.23
2018-09-06T00:03:22.757Z,1007.22
2018-09-06T00:04:22.718Z,1007.22
2018-09-06T00:05:22.694Z,1007.22
2018-09-06T00:06:22.720Z,1007.18
2018-09-06T00:07:22.712Z,1007.23
2018-09-06T00:08:22.702Z,1007.19
2018-09-06T00:09:22.667Z,1007.18
2018-09-06T00:10:22.676Z,1007.15
2018-09-06T00:11:22.617Z,1007.14
2018-09-06T00:12:22.607Z,1007.14
2018-09-06T00:13:22.638Z,1007.12
2018-09-06T00:14:22.645Z,1007.14
2018-09-06T00:15:22.598Z,1007.11
2018-09-06T00:16:22.604Z,1007.11
2018-09-06T00:17:22.550Z,1007.12
2018-09-06T00:18:22.551Z,1007.12
2018-09-06T00:19:22.575Z,1007.12
2018-09-06T00:20:22.584Z,1007.17
2018-09-06T00:21:22.549Z,1007.15
2018-09-06T00:22:22.541Z,1007.16
2018-09-06T00:23:22.494Z,1007.15
2018-09-06T00:24:22.475Z,1007.17
2018-09-06T00:25:22.482Z,1007.17
2018-09-06T00:26:22.454Z,1007.19
2018-09-06T00:27:22.483Z,1007.16
2018-09-06T00:28:22.443Z,1007.15
2018-09-06T00:29:22.472Z,1007.16
2018-09-06T00:30:22.511Z,1007.15
2018-09-06T00:31:22.436Z,1007.18
2018-09-06T00:32:22.436Z,1007.19
2018-09-06T00:33:22.432Z,1007.14
2018-09-06T00:34:22.400Z,1007.17
2018-09-06T00:35:22.415Z,1007.16
2018-09-06T00:36:22.355Z,1007.11
2018-09-06T00:37:22.378Z,1007.11
2018-09-06T00:38:22.370Z,1007.10
2018-09-06T00:39:22.355Z,1007.13
2018-09-06T00:40:22.375Z,1007.16
2018-09-06T00:41:22.343Z,1007.16
2018-09-06T00:42:22.329Z,1007.15
2018-09-06T00:43:22.304Z,1007.15
2018-09-06T00:44:22.301Z,1007.18
2018-09-06T00:45:22.314Z,1007.17
2018-09-06T00:46:22.294Z,1007.17
2018-09-06T00:47:22.295Z,1007.19
2018-09-06T00:48:22.260Z,1007.14
2018-09-06T00:49:22.247Z,1007.17
2018-09-06T00:50:22.262Z,1007.14
2018-09-06T00:51:22.227Z,1007.14
2018-09-06T00:52:22.222Z,1007.14
2018-09-06T00:53:22.211Z,1007.15
2018-09-06T00:54:22.191Z,1007.11
2018-09-06T00:55:22.177Z,1007.13
2018-09-06T00:56:22.171Z,1007.10
2018-09-06T00:57:22.166Z,1007.18
2018-09-06T00:58:22.106Z,1007.15
2018-09-06T00:59:22.148Z,1007.13
2018-09-06T01:00:22.150Z,1007.15
2018-09-06T01:01:22.133Z,1007.12
2018-09-06T01:02:22.101Z,1007.10
2018-09-06T01:03:22.096Z,1007.15
2018-09-06T01:04:22.083Z,1007.14
2018-09-06T01:05:22.096Z,1007.12
2018-09-06T01:06:22.065Z,1007.17
2018-09-06T01:07:22.053Z,1007.09
2018-09-06T01:08:22.001Z,1007.17
2018-09-06T01:09:22.000Z,1007.11
2018-09-06T01:10:22.016Z,1007.11
2018-09-06T01:11:22.081Z,1007.09
2018-09-06T01:12:21.999Z,1007.06
2018-09-06T01:13:21.987Z,1007.08
2018-09-06T01:14:21.977Z,1007.03
2018-09-06T01:15:21.948Z,1007.04
2018-09-06T01:16:21.971Z,1007.00
2018-09-06T01:17:21.978Z,1007.03
2018-09-06T01:18:21.934Z,1006.97
2018-09-06T01:19:21.955Z,1007.02
2018-09-06T01:20:21.934Z,1007.01
2018-09-06T01:21:21.906Z,1007.01
2018-09-06T01:22:21.895Z,1006.98
2018-09-06T01:23:21.887Z,1007.04
2018-09-06T01:24:21.868Z,1007.02
2018-09-06T01:25:21.881Z,1007.01
2018-09-06T01:26:21.860Z,1007.04
2018-09-06T01:27:21.882Z,1007.04
2018-09-06T01:28:21.828Z,1006.99
2018-09-06T01:29:21.815Z,1007.03
2018-09-06T01:30:21.833Z,1007.06
2018-09-06T01:31:21.801Z,1007.05
2018-09-06T01:32:21.792Z,1007.05
2018-09-06T01:33:21.777Z,1007.05
2018-09-06T01:34:21.771Z,1006.97
2018-09-06T01:35:21.787Z,1007.01
2018-09-06T01:36:21.742Z,1007.01
2018-09-06T01:37:21.755Z,1007.03
2018-09-06T01:38:21.771Z,1007.03
2018-09-06T01:39:21.718Z,1007.01
2018-09-06T01:40:21.738Z,1006.99
2018-09-06T01:41:21.665Z,1007.00
2018-09-06T01:42:21.686Z,1006.98
2018-09-06T01:43:21.624Z,1006.94
2018-09-06T01:44:21.668Z,1006.93
2018-09-06T01:45:21.712Z,1006.93
2018-09-06T01:46:21.600Z,1006.98
2018-09-06T01:47:21.591Z,1006.94
2018-09-06T01:48:21.606Z,1006.95
2018-09-06T01:49:21.623Z,1006.96
2018-09-06T01:50:21.713Z,1006.95
2018-09-06T01:51:21.536Z,1006.99
2018-09-06T01:52:21.579Z,1006.96
2018-09-06T01:53:21.563Z,1007.00
2018-09-06T01:54:21.558Z,1006.97
2018-09-06T01:55:21.712Z,1007.00
2018-09-06T01:56:21.501Z,1007.03
2018-09-06T01:57:21.520Z,1007.01
2018-09-06T01:58:21.507Z,1007.00
2018-09-06T01:59:21.499Z,1007.02
2018-09-06T02:00:21.464Z,1007.00
2018-09-06T02:01:21.472Z,1006.99
2018-09-06T02:02:21.468Z,1006.97
2018-09-06T02:03:21.453Z,1006.92
2018-09-06T02:04:21.447Z,1006.95
2018-09-06T02:05:21.459Z,1006.92
2018-09-06T02:06:21.423Z,1006.93
2018-09-06T02:07:21.406Z,1006.93
2018-09-06T02:08:21.405Z,1006.89
2018-09-06T02:09:21.414Z,1006.90
2018-09-06T02:10:21.386Z,1006.89
2018-09-06T02:11:21.369Z,1006.89
2018-09-06T02:12:21.358Z,1006.86
2018-09-06T02:13:21.348Z,1006.85
2018-09-06T02:14:21.444Z,1006.85
2018-09-06T02:15:21.358Z,1006.84
2018-09-06T02:16:21.272Z,1006.84
2018-09-06T02:17:21.308Z,1006.83
2018-09-06T02:18:21.296Z,1006.84
2018-09-06T02:19:21.279Z,1006.79
2018-09-06T02:20:21.353Z,1006.83
2018-09-06T02:21:21.262Z,1006.85
2018-09-06T02:22:21.206Z,1006.81
2018-09-06T02:23:21.238Z,1006.86
2018-09-06T02:24:21.306Z,1006.81
2018-09-06T02:25:21.223Z,1006.81
2018-09-06T02:26:21.267Z,1006.79
2018-09-06T02:27:21.197Z,1006.79
2018-09-06T02:28:21.185Z,1006.78
2018-09-06T02:29:21.127Z,1006.76
2018-09-06T02:30:21.158Z,1006.75
2018-09-06T02:31:21.180Z,1006.72
2018-09-06T02:32:21.139Z,1006.71
2018-09-06T02:33:21.127Z,1006.70
2018-09-06T02:34:21.116Z,1006.69
2018-09-06T02:35:21.112Z,1006.66
2018-09-06T02:36:21.121Z,1006.66
2018-09-06T02:37:21.085Z,1006.64
2018-09-06T02:38:21.081Z,1006.66
2018-09-06T02:39:21.070Z,1006.62
2018-09-06T02:40:21.053Z,1006.57
2018-09-06T02:41:21.062Z,1006.61
2018-09-06T02:42:20.982Z,1006.62
2018-09-06T02:43:21.010Z,1006.57
2018-09-06T02:44:21.006Z,1006.63
2018-09-06T02:45:20.953Z,1006.63
2018-09-06T02:46:21.002Z,1006.65
2018-09-06T02:47:20.930Z,1006.64
2018-09-06T02:48:20.965Z,1006.64
2018-09-06T02:49:20.955Z,1006.67
2018-09-06T02:50:20.952Z,1006.74
2018-09-06T02:51:20.952Z,1006.75
2018-09-06T02:52:20.918Z,1006.88
2018-09-06T02:53:20.916Z,1007.02
2018-09-06T02:54:20.899Z,1007.09
2018-09-06T02:55:20.886Z,1007.16
2018-09-06T02:56:20.854Z,1007.19
2018-09-06T02:57:20.869Z,1007.21
2018-09-06T02:58:20.853Z,1007.13
2018-09-06T02:59:20.876Z,1007.09
2018-09-06T03:00:20.789Z,1007.06
2018-09-06T03:01:20.860Z,1006.99
2018-09-06T03:02:20.807Z,1006.91
2018-09-06T03:03:20.755Z,1006.89
2018-09-06T03:04:20.749Z,1006.91
2018-09-06T03:05:20.773Z,1006.92
2018-09-06T03:06:20.781Z,1006.90
2018-09-06T03:07:20.756Z,1006.92
2018-09-06T03:08:20.740Z,1006.91
2018-09-06T03:09:20.695Z,1006.89
2018-09-06T03:10:20.718Z,1006.91
2018-09-06T03:11:20.730Z,1006.92
2018-09-06T03:12:20.694Z,1006.91
2018-09-06T03:13:20.670Z,1006.91
2018-09-06T03:14:20.622Z,1006.90
2018-09-06T03:15:20.665Z,1006.87
2018-09-06T03:16:20.676Z,1006.91
2018-09-06T03:17:20.650Z,1006.93
2018-09-06T03:18:20.629Z,1006.86
2018-09-06T03:19:20.612Z,1006.92
2018-09-06T03:20:20.607Z,1006.93
2018-09-06T03:21:20.619Z,1006.90
2018-09-06T03:22:20.587Z,1006.93
2018-09-06T03:23:20.541Z,1006.91
2018-09-06T03:24:20.571Z,1006.92
2018-09-06T03:25:20.572Z,1006.91
2018-09-06T03:26:20.565Z,1006.90
2018-09-06T03:27:20.535Z,1006.87
2018-09-06T03:28:20.521Z,1006.89
2018-09-06T03:29:20.535Z,1006.83
2018-09-06T03:30:20.512Z,1006.81
2018-09-06T03:31:20.515Z,1006.80
2018-09-06T03:32:20.484Z,1006.81
2018-09-06T03:33:20.471Z,1006.81
2018-09-06T03:34:20.452Z,1006.81
2018-09-06T03:35:20.442Z,1006.77
2018-09-06T03:36:20.455Z,1006.78
2018-09-06T03:37:20.426Z,1006.77
2018-09-06T03:38:20.420Z,1006.79
2018-09-06T03:39:20.426Z,1006.76
2018-09-06T03:40:20.344Z,1006.74
2018-09-06T03:41:20.337Z,1006.71
2018-09-06T03:42:20.388Z,1006.74
2018-09-06T03:43:20.356Z,1006.74
2018-09-06T03:44:20.347Z,1006.67
2018-09-06T03:45:20.363Z,1006.68
2018-09-06T03:46:20.286Z,1006.67
2018-09-06T03:47:20.374Z,1006.62
2018-09-06T03:48:20.302Z,1006.65
2018-09-06T03:49:20.298Z,1006.63
2018-09-06T03:50:20.284Z,1006.60
2018-09-06T03:51:20.225Z,1006.56
2018-09-06T03:52:20.276Z,1006.56
2018-09-06T03:53:20.254Z,1006.52
2018-09-06T03:54:20.238Z,1006.47
2018-09-06T03:55:20.228Z,1006.50
2018-09-06T03:56:20.215Z,1006.49
2018-09-06T03:57:20.234Z,1006.49
2018-09-06T03:58:20.193Z,1006.54
2018-09-06T03:59:20.184Z,1006.57
2018-09-06T04:00:20.167Z,1006.55
2018-09-06T04:01:20.171Z,1006.60
2018-09-06T04:02:20.168Z,1006.48
2018-09-06T04:03:20.141Z,1006.52
2018-09-06T04:04:20.112Z,1006.49
2018-09-06T04:05:20.119Z,1006.48
2018-09-06T04:06:20.108Z,1006.50
2018-09-06T04:07:20.078Z,1006.47
2018-09-06T04:08:20.092Z,1006.49
2018-09-06T04:09:20.366Z,1006.48
2018-09-06T04:10:20.244Z,1006.51
2018-09-06T04:11:20.059Z,1006.53
2018-09-06T04:12:20.666Z,1006.54
2018-09-06T04:13:20.036Z,1006.58
2018-09-06T04:14:20.029Z,1006.56
2018-09-06T04:15:20.016Z,1006.54
2018-09-06T04:16:20.021Z,1006.54
2018-09-06T04:17:20.011Z,1006.54
2018-09-06T04:18:20.093Z,1006.50
2018-09-06T04:19:19.977Z,1006.50
2018-09-06T04:20:19.965Z,1006.50
2018-09-06T04:21:19.952Z,1006.49
2018-09-06T04:22:20.029Z,1006.44
2018-09-06T04:23:19.929Z,1006.44
2018-09-06T04:24:19.968Z,1006.46
2018-09-06T04:25:19.864Z,1006.41
2018-09-06T04:26:19.924Z,1006.40
2018-09-06T04:27:19.924Z,1006.42
2018-09-06T04:28:19.912Z,1006.43
2018-09-06T04:29:19.824Z,1006.43
2018-09-06T04:30:19.856Z,1006.43
2018-09-06T04:31:19.844Z,1006.41
2018-09-06T04:32:19.836Z,1006.44
2018-09-06T04:33:19.827Z,1006.45
2018-09-06T04:34:19.813Z,1006.44
2018-09-06T04:35:19.844Z,1006.44
2018-09-06T04:36:19.871Z,1006.42
2018-09-06T04:37:19.806Z,1006.44
2018-09-06T04:38:19.771Z,1006.41
2018-09-06T04:39:19.761Z,1006.40
2018-09-06T04:40:19.748Z,1006.35
2018-09-06T04:41:19.737Z,1006.39
2018-09-06T04:42:19.705Z,1006.37
2018-09-06T04:43:19.715Z,1006.33
2018-09-06T04:44:19.704Z,1006.38
2018-09-06T04:45:19.707Z,1006.37
2018-09-06T04:46:19.692Z,1006.39
2018-09-06T04:47:19.670Z,1006.42
2018-09-06T04:48:19.678Z,1006.40
2018-09-06T04:49:19.679Z,1006.40
2018-09-06T04:50:19.599Z,1006.35
2018-09-06T04:51:19.640Z,1006.40
2018-09-06T04:52:19.664Z,1006.39
2018-09-06T04:53:19.576Z,1006.40
2018-09-06T04:54:19.598Z,1006.40
2018-09-06T04:55:19.644Z,1006.45
2018-09-06T04:56:19.589Z,1006.46
2018-09-06T04:57:19.598Z,1006.49
2018-09-06T04:58:19.573Z,1006.49
2018-09-06T04:59:19.509Z,1006.45
2018-09-06T05:00:19.549Z,1006.49
2018-09-06T05:01:19.530Z,1006.47
2018-09-06T05:02:19.541Z,1006.45
2018-09-06T05:03:19.503Z,1006.45
2018-09-06T05:04:19.640Z,1006.47
2018-09-06T05:05:19.485Z,1006.38
2018-09-06T05:06:19.474Z,1006.42
2018-09-06T05:07:19.472Z,1006.41
2018-09-06T05:08:19.509Z,1006.38
2018-09-06T05:09:19.459Z,1006.36
2018-09-06T05:10:19.399Z,1006.39
2018-09-06T05:11:19.422Z,1006.31
2018-09-06T05:12:19.415Z,1006.34
2018-09-06T05:13:19.431Z,1006.32
2018-09-06T05:14:19.396Z,1006.26
2018-09-06T05:15:19.457Z,1006.27
2018-09-06T05:16:19.383Z,1006.32
2018-09-06T05:17:19.360Z,1006.27
2018-09-06T05:18:19.369Z,1006.27
2018-09-06T05:19:19.365Z,1006.22
2018-09-06T05:20:19.338Z,1006.18
2018-09-06T05:21:19.373Z,1006.14
2018-09-06T05:22:19.295Z,1006.14
2018-09-06T05:23:19.356Z,1006.13
2018-09-06T05:24:19.291Z,1006.14
2018-09-06T05:25:19.310Z,1006.13
2018-09-06T05:26:19.272Z,1006.16
2018-09-06T05:27:19.252Z,1006.15
2018-09-06T05:28:19.262Z,1006.14
2018-09-06T05:29:19.240Z,1006.11
2018-09-06T05:30:19.221Z,1006.14
2018-09-06T05:31:19.236Z,1006.13
2018-09-06T05:32:19.153Z,1006.08
2018-09-06T05:33:19.233Z,1006.07
2018-09-06T05:34:19.178Z,1006.08
2018-09-06T05:35:19.242Z,1006.06
2018-09-06T05:36:19.208Z,1006.08
2018-09-06T05:37:19.147Z,1006.06
2018-09-06T05:38:19.166Z,1006.06
2018-09-06T05:39:19.122Z,1006.12
2018-09-06T05:40:19.116Z,1006.10
2018-09-06T05:41:19.057Z,1006.10
2018-09-06T05:42:19.090Z,1006.10
2018-09-06T05:43:19.113Z,1006.14
2018-09-06T05:44:19.924Z,1006.16
2018-09-06T05:45:19.911Z,1006.15
2018-09-06T05:46:19.931Z,1006.25
2018-09-06T05:47:19.241Z,1006.28
2018-09-06T05:48:20.408Z,1006.31
2018-09-06T05:49:19.017Z,1006.33
2018-09-06T05:50:19.011Z,1006.36
2018-09-06T05:51:19.000Z,1006.37
2018-09-06T05:52:18.985Z,1006.38
2018-09-06T05:53:19.030Z,1006.39
2018-09-06T05:54:18.961Z,1006.40
2018-09-06T05:55:18.951Z,1006.40
2018-09-06T05:56:18.914Z,1006.44
2018-09-06T05:57:18.937Z,1006.41
2018-09-06T05:58:18.938Z,1006.42
2018-09-06T05:59:18.874Z,1006.40
2018-09-06T06:00:18.903Z,1006.39
2018-09-06T06:01:18.893Z,1006.38
2018-09-06T06:02:19.007Z,1006.34
2018-09-06T06:03:19.165Z,1006.32
2018-09-06T06:04:18.858Z,1006.40
2018-09-06T06:05:18.874Z,1006.34
2018-09-06T06:06:18.837Z,1006.35
2018-09-06T06:07:18.834Z,1006.34
2018-09-06T06:08:18.992Z,1006.31
2018-09-06T06:09:18.802Z,1006.37
2018-09-06T06:10:18.770Z,1006.34
2018-09-06T06:11:18.741Z,1006.35
2018-09-06T06:12:18.843Z,1006.35
2018-09-06T06:13:18.786Z,1006.39
2018-09-06T06:14:18.840Z,1006.39
2018-09-06T06:15:18.739Z,1006.39
2018-09-06T06:16:18.765Z,1006.41
2018-09-06T06:17:18.760Z,1006.43
2018-09-06T06:18:18.693Z,1006.44
2018-09-06T06:19:18.677Z,1006.46
2018-09-06T06:20:18.702Z,1006.49
2018-09-06T06:21:18.835Z,1006.44
2018-09-06T06:22:18.734Z,1006.44
2018-09-06T06:23:18.644Z,1006.40
2018-09-06T06:24:18.619Z,1006.35
2018-09-06T06:25:18.632Z,1006.32
2018-09-06T06:26:18.624Z,1006.26
2018-09-06T06:27:18.614Z,1006.25
2018-09-06T06:28:18.656Z,1006.26
2018-09-06T06:29:18.591Z,1006.25
2018-09-06T06:30:18.586Z,1006.26
2018-09-06T06:31:18.574Z,1006.27
2018-09-06T06:32:18.581Z,1006.24
2018-09-06T06:33:18.573Z,1006.22
2018-09-06T06:34:18.541Z,1006.22
2018-09-06T06:35:18.550Z,1006.21
2018-09-06T06:36:18.520Z,1006.26
2018-09-06T06:37:18.512Z,1006.20
2018-09-06T06:38:18.477Z,1006.23
2018-09-06T06:39:18.489Z,1006.26
2018-09-06T06:40:18.479Z,1006.22
2018-09-06T06:41:18.467Z,1006.21
2018-09-06T06:42:18.455Z,1006.16
2018-09-06T06:43:18.463Z,1006.14
2018-09-06T06:44:18.440Z,1006.17
2018-09-06T06:45:18.422Z,1006.18
2018-09-06T06:46:18.412Z,1006.15
2018-09-06T06:47:18.370Z,1006.11
2018-09-06T06:48:18.421Z,1006.16
2018-09-06T06:49:25.473Z,1006.13
2018-09-06T06:50:18.334Z,1006.14
2018-09-06T06:51:18.361Z,1006.12
2018-09-06T06:52:18.348Z,1006.13
2018-09-06T06:53:18.367Z,1006.11
2018-09-06T06:54:18.308Z,1006.07
2018-09-06T06:55:18.316Z,1006.06
2018-09-06T06:56:18.331Z,1006.10
2018-09-06T06:57:18.299Z,1006.12
2018-09-06T06:58:18.286Z,1006.12
2018-09-06T06:59:18.305Z,1006.11
2018-09-06T07:00:18.264Z,1006.14
2018-09-06T07:01:18.251Z,1006.19
2018-09-06T07:02:18.226Z,1006.19
2018-09-06T07:03:18.228Z,1006.19
2018-09-06T07:04:18.309Z,1006.21
2018-09-06T07:05:18.227Z,1006.20
2018-09-06T07:06:18.198Z,1006.25
2018-09-06T07:07:18.184Z,1006.20
2018-09-06T07:08:18.177Z,1006.17
2018-09-06T07:09:18.193Z,1006.16
2018-09-06T07:10:18.152Z,1006.20
2018-09-06T07:11:18.129Z,1006.18
2018-09-06T07:12:18.129Z,1006.22
2018-09-06T07:13:18.122Z,1006.20
2018-09-06T07:14:18.131Z,1006.18
2018-09-06T07:15:18.059Z,1006.20
2018-09-06T07:16:18.091Z,1006.20
2018-09-06T07:17:18.047Z,1006.25
2018-09-06T07:18:18.073Z,1006.25
2018-09-06T07:19:18.085Z,1006.28
2018-09-06T07:20:18.043Z,1006.26
2018-09-06T07:21:18.046Z,1006.25
2018-09-06T07:22:18.018Z,1006.25
2018-09-06T07:23:18.007Z,1006.26
2018-09-06T07:24:18.020Z,1006.30
2018-09-06T07:25:17.991Z,1006.24
2018-09-06T07:26:17.973Z,1006.30
2018-09-06T07:27:17.975Z,1006.27
2018-09-06T07:28:17.909Z,1006.27
2018-09-06T07:29:17.984Z,1006.27
2018-09-06T07:30:17.930Z,1006.28
2018-09-06T07:31:17.925Z,1006.30
2018-09-06T07:32:17.876Z,1006.32
2018-09-06T07:33:17.893Z,1006.39
2018-09-06T07:34:17.909Z,1006.37
2018-09-06T07:35:17.910Z,1006.35
2018-09-06T07:36:17.826Z,1006.38
2018-09-06T07:37:17.867Z,1006.37
2018-09-06T07:38:17.860Z,1006.39
2018-09-06T07:39:17.861Z,1006.40
2018-09-06T07:40:17.847Z,1006.42
2018-09-06T07:41:17.842Z,1006.48
2018-09-06T07:42:17.802Z,1006.46
2018-09-06T07:43:17.792Z,1006.44
2018-09-06T07:44:17.816Z,1006.40
2018-09-06T07:45:17.775Z,1006.40
2018-09-06T07:46:17.758Z,1006.36
2018-09-06T07:47:17.748Z,1006.34
2018-09-06T07:48:17.735Z,1006.32
2018-09-06T07:49:17.749Z,1006.33
2018-09-06T07:50:17.715Z,1006.31
2018-09-06T07:51:17.712Z,1006.34
2018-09-06T07:52:17.753Z,1006.37
2018-09-06T07:53:17.684Z,1006.36
2018-09-06T07:54:17.687Z,1006.35
2018-09-06T07:55:17.653Z,1006.37
2018-09-06T07:56:17.646Z,1006.37
2018-09-06T07:57:17.641Z,1006.37
2018-09-06T07:58:17.631Z,1006.40
2018-09-06T07:59:17.642Z,1006.41
2018-09-06T08:00:17.606Z,1006.43
2018-09-06T08:01:17.603Z,1006.43
2018-09-06T08:02:17.538Z,1006.45
2018-09-06T08:03:17.578Z,1006.42
2018-09-06T08:04:17.737Z,1006.38
2018-09-06T08:05:17.562Z,1006.41
2018-09-06T08:06:17.552Z,1006.36
2018-09-06T08:07:17.534Z,1006.35
2018-09-06T08:08:17.520Z,1006.37
2018-09-06T08:09:17.536Z,1006.39
2018-09-06T08:10:17.507Z,1006.37
2018-09-06T08:11:17.499Z,1006.33
2018-09-06T08:12:17.471Z,1006.36
2018-09-06T08:13:17.468Z,1006.35
2018-09-06T08:14:17.584Z,1006.36
2018-09-06T08:15:17.442Z,1006.40
2018-09-06T08:16:17.432Z,1006.44
2018-09-06T08:17:17.425Z,1006.42
2018-09-06T08:18:17.409Z,1006.40
2018-09-06T08:19:17.430Z,1006.41
2018-09-06T08:20:17.388Z,1006.54
2018-09-06T08:21:17.378Z,1006.50
2018-09-06T08:22:17.361Z,1006.51
2018-09-06T08:23:17.359Z,1006.44
2018-09-06T08:24:17.358Z,1006.45
2018-09-06T08:25:17.350Z,1006.43
2018-09-06T08:26:17.319Z,1006.46
2018-09-06T08:27:17.356Z,1006.44
2018-09-06T08:28:17.299Z,1006.43
2018-09-06T08:29:17.291Z,1006.45
2018-09-06T08:30:17.314Z,1006.42
2018-09-06T08:31:17.299Z,1006.43
2018-09-06T08:32:17.258Z,1006.44
2018-09-06T08:33:17.201Z,1006.46
2018-09-06T08:34:17.233Z,1006.45
2018-09-06T08:35:17.245Z,1006.44
2018-09-06T08:36:17.180Z,1006.45
2018-09-06T08:37:17.209Z,1006.45
2018-09-06T08:38:17.191Z,1006.41
2018-09-06T08:39:17.187Z,1006.46
2018-09-06T08:40:17.192Z,1006.41
2018-09-06T08:41:17.113Z,1006.44
2018-09-06T08:42:17.176Z,1006.45
2018-09-06T08:43:17.143Z,1006.46
2018-09-06T08:44:17.127Z,1006.41
2018-09-06T08:45:17.163Z,1006.43
2018-09-06T08:46:17.101Z,1006.44
2018-09-06T08:47:17.088Z,1006.43
2018-09-06T08:48:17.081Z,1006.44
2018-09-06T08:49:17.066Z,1006.45
2018-09-06T08:50:17.079Z,1006.43
2018-09-06T08:51:17.042Z,1006.50
2018-09-06T08:52:17.080Z,1006.48
2018-09-06T08:53:17.020Z,1006.50
2018-09-06T08:54:17.013Z,1006.58
2018-09-06T08:55:17.020Z,1006.56
2018-09-06T08:56:17.029Z,1006.58
2018-09-06T08:57:16.978Z,1006.57
2018-09-06T08:58:16.978Z,1006.56
2018-09-06T08:59:16.954Z,1006.55
2018-09-06T09:00:16.972Z,1006.52
2018-09-06T09:01:16.936Z,1006.56
2018-09-06T09:02:17.090Z,1006.54
2018-09-06T09:03:16.940Z,1006.47
2018-09-06T09:04:16.908Z,1006.49
2018-09-06T09:05:16.926Z,1006.50
2018-09-06T09:06:16.881Z,1006.46
2018-09-06T09:07:16.831Z,1006.42
2018-09-06T09:08:16.880Z,1006.46
2018-09-06T09:09:16.852Z,1006.45
2018-09-06T09:10:16.860Z,1006.45
2018-09-06T09:11:16.826Z,1006.49
2018-09-06T09:12:16.817Z,1006.52
2018-09-06T09:13:16.826Z,1006.47
2018-09-06T09:14:16.797Z,1006.48
2018-09-06T09:15:16.801Z,1006.47
2018-09-06T09:16:16.948Z,1006.45
2018-09-06T09:17:16.806Z,1006.43
2018-09-06T09:18:16.801Z,1006.43
2018-09-06T09:19:16.704Z,1006.45
2018-09-06T09:20:16.772Z,1006.44
2018-09-06T09:21:16.717Z,1006.42
2018-09-06T09:22:16.783Z,1006.39
2018-09-06T09:23:16.703Z,1006.31
2018-09-06T09:24:16.693Z,1006.31
2018-09-06T09:25:16.700Z,1006.33
2018-09-06T09:26:16.673Z,1006.27
2018-09-06T09:27:16.658Z,1006.31
2018-09-06T09:28:16.648Z,1006.30
2018-09-06T09:29:16.636Z,1006.34
2018-09-06T09:30:16.606Z,1006.31
2018-09-06T09:31:16.615Z,1006.31
2018-09-06T09:32:16.605Z,1006.33
2018-09-06T09:33:16.592Z,1006.33
2018-09-06T09:34:16.582Z,1006.34
2018-09-06T09:35:16.571Z,1006.33
2018-09-06T09:36:16.582Z,1006.33
2018-09-06T09:37:16.560Z,1006.32
2018-09-06T09:38:16.538Z,1006.27
2018-09-06T09:39:16.523Z,1006.29
2018-09-06T09:40:16.516Z,1006.29
2018-09-06T09:41:16.486Z,1006.27
2018-09-06T09:42:16.492Z,1006.32
2018-09-06T09:43:16.551Z,1006.27
2018-09-06T09:44:16.475Z,1006.28
2018-09-06T09:45:16.469Z,1006.32
2018-09-06T09:47:43.335Z,1006.29
2018-09-06T09:48:43.312Z,1006.24
2018-09-06T09:49:43.362Z,1006.25
2018-09-06T09:51:12.112Z,1006.22
2018-09-06T09:52:12.106Z,1006.20
2018-09-06T09:53:12.175Z,1006.17
2018-09-06T09:54:12.068Z,1006.16
2018-09-06T09:55:12.060Z,1006.15
2018-09-06T09:56:12.071Z,1006.20
2018-09-06T09:57:12.058Z,1006.21
2018-09-06T09:58:12.037Z,1006.24
2018-09-06T09:59:12.094Z,1006.23
2018-09-06T10:00:12.010Z,1006.17
2018-09-06T10:01:12.024Z,1006.21
2018-09-06T10:02:11.988Z,1006.22
2018-09-06T10:03:11.983Z,1006.20
2018-09-06T10:04:11.959Z,1006.23
2018-09-06T10:05:11.971Z,1006.21
2018-09-06T10:06:11.990Z,1006.21
2018-09-06T10:07:11.887Z,1006.20
2018-09-06T10:08:11.926Z,1006.22
2018-09-06T10:09:11.926Z,1006.26
2018-09-06T10:10:11.904Z,1006.28
2018-09-06T10:11:11.926Z,1006.26
2018-09-06T10:12:11.882Z,1006.26
2018-09-06T10:13:11.866Z,1006.27
2018-09-06T10:14:11.851Z,1006.27
2018-09-06T10:15:11.853Z,1006.26
2018-09-06T10:16:11.860Z,1006.29
2018-09-06T10:17:11.825Z,1006.30
2018-09-06T10:18:11.778Z,1006.30
2018-09-06T10:19:11.804Z,1006.35
2018-09-06T10:20:11.787Z,1006.31
2018-09-06T10:21:11.750Z,1006.36
2018-09-06T10:22:11.780Z,1006.40
2018-09-06T10:23:11.756Z,1006.29
2018-09-06T10:24:11.752Z,1006.30
2018-09-06T10:25:11.747Z,1006.28
2018-09-06T10:26:11.756Z,1006.24
2018-09-06T10:27:11.713Z,1006.24
2018-09-06T10:28:11.701Z,1006.27
2018-09-06T10:29:11.693Z,1006.19
2018-09-06T10:30:11.682Z,1006.23
2018-09-06T10:31:11.623Z,1006.23
2018-09-06T10:32:11.680Z,1006.23
2018-09-06T10:33:11.652Z,1006.18
2018-09-06T10:34:11.636Z,1006.20
2018-09-06T10:35:11.599Z,1006.20
2018-09-06T10:36:11.613Z,1006.16
2018-09-06T10:37:11.630Z,1006.17
2018-09-06T10:38:11.596Z,1006.18
2018-09-06T10:39:11.623Z,1006.17
2018-09-06T10:40:11.571Z,1006.16
2018-09-06T10:41:11.559Z,1006.21
2018-09-06T10:42:11.584Z,1006.19
2018-09-06T10:43:11.544Z,1006.20
2018-09-06T10:44:11.523Z,1006.20
2018-09-06T10:45:11.472Z,1006.19
2018-09-06T10:46:11.501Z,1006.17
2018-09-06T10:47:11.522Z,1006.16
2018-09-06T10:48:11.484Z,1006.14
2018-09-06T10:49:11.471Z,1006.17
2018-09-06T10:50:11.463Z,1006.14
2018-09-06T10:51:11.453Z,1006.14
2018-09-06T10:52:11.437Z,1006.13
2018-09-06T10:53:11.433Z,1006.11
2018-09-06T10:54:11.452Z,1006.09
2018-09-06T10:55:11.409Z,1006.06
2018-09-06T10:56:11.360Z,1006.05
2018-09-06T10:57:11.405Z,1006.08
2018-09-06T10:58:11.448Z,1006.07
2018-09-06T10:59:11.366Z,1006.08
2018-09-06T11:00:11.356Z,1006.05
2018-09-06T11:01:11.349Z,1006.05
2018-09-06T11:02:11.441Z,1005.96
2018-09-06T11:03:11.321Z,1005.95
2018-09-06T11:04:11.321Z,1005.92
2018-09-06T11:05:11.303Z,1005.97
2018-09-06T11:06:11.319Z,1005.95
2018-09-06T11:07:11.304Z,1005.95
2018-09-06T11:08:11.339Z,1005.91
2018-09-06T11:09:11.214Z,1005.95
2018-09-06T11:10:11.209Z,1005.89
2018-09-06T11:11:11.233Z,1005.86
2018-09-06T11:12:11.274Z,1005.85
2018-09-06T11:13:11.214Z,1005.81
2018-09-06T11:14:11.203Z,1005.83
2018-09-06T11:15:11.197Z,1005.86
2018-09-06T11:16:11.180Z,1005.86
2018-09-06T11:17:11.199Z,1005.86
2018-09-06T11:18:11.162Z,1005.81
2018-09-06T11:19:11.152Z,1005.79
2018-09-06T11:20:11.142Z,1005.76
2018-09-06T11:21:11.240Z,1005.75
2018-09-06T11:22:11.277Z,1005.72
2018-09-06T11:23:11.111Z,1005.70
2018-09-06T11:24:11.095Z,1005.72
2018-09-06T11:25:11.136Z,1005.78
2018-09-06T11:26:11.035Z,1005.79
2018-09-06T11:27:11.099Z,1005.74
2018-09-06T11:28:11.057Z,1005.75
2018-09-06T11:29:11.061Z,1005.76
2018-09-06T11:30:11.036Z,1005.78
2018-09-06T11:31:18.037Z,1005.74
2018-09-06T11:32:11.019Z,1005.69
2018-09-06T11:33:11.045Z,1005.69
2018-09-06T11:34:10.988Z,1005.72
2018-09-06T11:35:10.985Z,1005.70
2018-09-06T11:36:10.970Z,1005.67
2018-09-06T11:37:10.956Z,1005.70
2018-09-06T11:38:10.981Z,1005.70
2018-09-06T11:39:10.936Z,1005.69
2018-09-06T11:40:11.021Z,1005.65
2018-09-06T11:41:10.918Z,1005.66
2018-09-06T11:42:10.903Z,1005.70
2018-09-06T11:43:10.919Z,1005.63
2018-09-06T11:44:10.884Z,1005.64
2018-09-06T11:45:10.874Z,1005.62
2018-09-06T11:46:10.871Z,1005.66
2018-09-06T11:47:10.916Z,1005.67
2018-09-06T11:48:10.862Z,1005.68
2018-09-06T11:49:10.790Z,1005.67
2018-09-06T11:50:10.817Z,1005.70
2018-09-06T11:51:10.769Z,1005.65
2018-09-06T11:52:10.800Z,1005.66
2018-09-06T11:53:10.925Z,1005.61
2018-09-06T11:54:10.733Z,1005.61
2018-09-06T11:55:10.750Z,1005.62
2018-09-06T11:56:10.763Z,1005.63
2018-09-06T11:57:10.743Z,1005.56
2018-09-06T11:58:10.714Z,1005.58
2018-09-06T11:59:10.793Z,1005.62
2018-09-06T12:00:10.716Z,1005.60
2018-09-06T12:01:10.659Z,1005.64
2018-09-06T12:02:10.725Z,1005.60
2018-09-06T12:03:10.713Z,1005.62
2018-09-06T12:04:10.669Z,1005.54
2018-09-06T12:05:10.725Z,1005.60
2018-09-06T12:06:10.664Z,1005.54
2018-09-06T12:07:10.634Z,1005.56